Tiempo atmosférico en la estación meteorológica de Hierro Aeropuerto, Santa Cruz de Tenerife (32 m.)



Fecha
DESCASC
Temp. máxima en grados centígrados (hora)
DESCASC
Temp. mínima en grados centígrados (hora)
DESCASC
Temp. media en grados centígrados
DESCASC
Racha de viento máxima en m/sg (hora)
DESCASC
Velocidad máxima media en intervalos de 10 minutos(hora)
DESCASC
Precipitaciones diarias en mm
DESCASC
Precipitaciones de 00:00 a 06:00 en mm
DESCASC
Precipitaciones de 06:00 a 12:00 en mm
DESCASC
Precipitaciones de 12:00 a 18:00 en mm
DESCASC
Precipitaciones de 18:00 a 24:00 en mm
DESCASC
13-10-2019 25.8 (17:10) 20.5 (08:20) 23.1 10.28 (19:10) 7.22 (22:50) 0 0 0 0 0
12-10-2019 25.6 (13:40) 21.9 (05:30) 23.8 9.72 (02:10) 8.06 (02:20) 0 0 0 0 0
10-10-2019 -- (--) -- (--) -- -- (--) -- (--) -- 0 0 0 --
09-10-2019 24.7 (12:30) 22.1 (00:00) 23.4 12.78 (05:50) 10.56 (06:00) 0 0 0 0 0
08-10-2019 24.4 (11:20) 22.2 (00:00) 23.3 12.78 (11:00) 10.56 (07:00) 0 0 0 0 0
07-10-2019 25.3 (14:30) 22.2 (00:00) 23.8 13.33 (00:10) 10.83 (01:00) 0 0 0 0 0
06-10-2019 25.3 (13:50) 22.3 (00:00) 23.8 14.44 (08:20) 10.28 (20:10) 0 0 0 0 0
05-10-2019 25.7 (13:40) 22.5 (01:30) 24.1 12.78 (01:10) 9.72 (03:20) 0 0 0 0 0
04-10-2019 25.3 (14:30) 22.2 (00:00) 23.8 13.33 (04:40) 10 (04:40) 0 0 0 0 0
03-10-2019 25.4 (13:10) 22.6 (00:00) 24 11.67 (23:30) 7.78 (23:00) 0 0 0 0 0
02-10-2019 26.4 (14:50) 22.4 (00:00) 24.4 11.67 (00:30) 9.17 (19:20) 0 0 0 0 0
01-10-2019 25.7 (15:20) 22.5 (00:00) 24.1 11.39 (04:10) 8.06 (02:50) 0 0 0 0 0
30-09-2019 25.1 (15:20) 22.7 (00:00) 23.9 12.5 (19:20) 9.72 (14:40) 0 0 0 0 0
29-09-2019 25.8 (11:30) 22.3 (00:00) 24 11.67 (21:40) 9.44 (21:30) 0 0 0 0 0
28-09-2019 25.5 (16:00) 22.3 (00:00) 23.9 11.39 (05:30) 8.33 (05:50) 0 0 0 0 0
27-09-2019 25.9 (13:30) 22.8 (00:00) 24.3 12.5 (04:10) 8.61 (06:00) 0 0 0 0 0
26-09-2019 26 (13:00) 22.5 (00:00) 24.3 11.67 (08:10) 7.5 (08:10) 0 0 0 0 0
25-09-2019 25.5 (15:10) 22.5 (00:00) 24 11.39 (00:50) 8.89 (00:20) 0 0 0 0 0
24-09-2019 25.5 (12:50) 22.4 (00:00) 23.9 12.5 (18:30) 9.17 (13:50) 0 0 0 0 0
23-09-2019 26.2 (12:10) 22.9 (00:00) 24.6 11.67 (14:10) 9.72 (14:10) 0 0 0 0 0
22-09-2019 27.1 (14:00) 22.8 (00:00) 24.9 9.72 (20:50) 7.78 (21:00) 0 0 0 0 0
21-09-2019 26.2 (13:20) 21.2 (00:00) 23.7 10.83 (15:20) 7.78 (12:10) 0 0 0 0 0
20-09-2019 26.6 (15:10) 22.1 (00:00) 24.4 11.67 (14:50) 8.06 (03:00) 0 0 0 0 0
19-09-2019 25.7 (14:00) 22.4 (00:00) 24.1 11.39 (23:40) 9.17 (23:40) 0 0 0 0 0
18-09-2019 26.3 (14:30) 22 (00:00) 24.1 10.83 (03:50) 9.17 (05:40) 0 0 0 0 0
17-09-2019 25.3 (12:30) 22.3 (00:00) 23.8 9.72 (14:20) 7.78 (14:10) 0 0 0 0 0
16-09-2019 24.9 (14:00) 21.5 (00:00) 23.2 11.67 (08:20) 8.89 (09:20) 4.7 2.1 0 2.6 0

Gráficas

Temp. máximas Temp. mínimas Temp. medias Precipitaciones Rachas de viento máximas Velocidades máximas media en intervalos de 10 minutos

Datos horarios

Fecha y hora oficial Temperatura (ºC) Velocidad del viento (km/h) Dirección del viento Racha (km/h) Dirección de racha Precipitación (mm) Presión (hPa) Tendencia (hPa) Humedad (%)
2019-10-15 23:00:00 22.6 29 Nordeste 46 Nordeste 0 1018.1 1.2 70
2019-10-15 22:00:00 22.5 33 Norte 41 Nordeste 0 1017.5 0.8 71
2019-10-15 21:00:00 22.4 28 Norte 39 Nordeste 0 1017.2 1 69
2019-10-15 20:00:00 22.4 23 Norte 32 Nordeste 0 1016.9 0.6 69
2019-10-15 19:00:00 22.7 17 Norte 30 Norte 0 1016.7 0.3 67
2019-10-15 18:00:00 22.8 26 Norte 37 Nordeste 0 1016.2 -1 69
2019-10-15 17:00:00 22.8 26 Nordeste 35 Nordeste 0 1016.3 -1.6 70
2019-10-15 16:00:00 23 26 Nordeste 32 Nordeste 0 1016.4 -2.2 72
2019-10-15 15:00:00 23 18 Nordeste 24 Nordeste 0 1017.2 -1.6 70
2019-10-15 14:00:00 23.1 21 Nordeste 30 Este 0 1017.9 -0.6 73
2019-10-15 13:00:00 23.8 12 Este 26 Sudeste 0 1018.6 0.6 68
2019-10-15 12:00:00 23.9 13 Este 30 Nordeste 0 1018.8 1.2 65
2019-10-15 11:00:00 23.2 20 Nordeste 37 Nordeste 0 1018.5 1.3 71
2019-10-15 10:00:00 23 27 Nordeste 39 Nordeste 0 1018 1.1 67
2019-10-15 09:00:00 22.4 28 Nordeste 41 Nordeste 0 1017.6 0.8 71
2019-10-15 08:00:00 22.2 31 Nordeste 39 Nordeste 0 1017.2 0.5 70
2019-10-15 07:00:00 22.2 28 Norte 39 Nordeste 0 1016.9 -0.1 67
2019-10-15 06:00:00 22.2 29 Norte 45 Nordeste 0 1016.8 -0.7 66
2019-10-15 05:00:00 22.1 30 Nordeste 39 Norte 0 1016.7 -1.1 73
2019-10-15 04:00:00 22.2 31 Norte 41 Nordeste 0 1017 -1.3 70
2019-10-15 03:00:00 22.2 33 Nordeste 42 Nordeste 0 1017.5 -1.1 70
2019-10-15 02:00:00 22.4 25 Nordeste 37 Norte 0 1017.8 -0.5 73
2019-10-15 01:00:00 22.2 26 Norte 37 Norte 0 1018.3 0.4 72
2019-10-15 00:00:00 22.4 28 Norte 37 Norte 0 1018.6 1.5 74
2019-10-14 23:00:00 22.4 26 Norte 37 Norte 0 1018.3 1.6 74
2019-10-14 22:00:00 22.5 28 Norte 39 Norte 0 1017.9 1 73
2019-10-14 21:00:00 22.7 32 Norte 46 Norte 0 1017.1 0.2 72
2019-10-14 20:00:00 22.6 28 Norte 41 Norte 0 1016.7 -0.3 73
2019-10-14 19:00:00 22.7 27 Norte 37 Norte 0 1016.9 -0.1 73
2019-10-14 18:00:00 23 30 Norte 37 Norte 0 1016.9 -0.2 72
2019-10-14 17:00:00 23.1 30 Norte 39 Norte 0 1017 -0.8 74
2019-10-14 16:00:00 23.4 30 Norte 41 Norte 0 1017 -1 69
2019-10-14 15:00:00 23.2 31 Norte 41 Norte 0 1017.1 -1.2 75
2019-10-14 14:00:00 23.1 33 Nordeste 41 Nordeste 0 1017.8 -0.1 73
2019-10-14 13:00:00 23.4 28 Norte 41 Norte 0 1018 0.7 72
2019-10-14 12:00:00 22.9 32 Nordeste 42 Nordeste 0 1018.3 1.7 77
2019-10-14 11:00:00 22.9 30 Norte 39 Nordeste 0 1017.9 1.7 75
2019-10-14 10:00:00 22.5 31 Nordeste 39 Nordeste 0 1017.3 1.6 79
2019-10-14 09:00:00 21.9 31 Nordeste 37 Nordeste 0 1016.6 1.4 82
2019-10-14 08:00:00 21.9 30 Nordeste 37 Nordeste 0 1016.2 1.2 84
2019-10-14 07:00:00 22 28 Norte 37 Nordeste 0 1015.7 0.8 84
2019-10-14 06:00:00 21.7 30 Nordeste 45 Norte 0.2 1015.2 0.1 88
2019-10-14 05:00:00 22 26 Norte 35 Norte 0 1015 -0.5 88
2019-10-14 04:00:00 22.4 25 Norte 33 Norte 0 1014.9 -0.7 86
2019-10-14 03:00:00 22.3 19 Norte 28 Norte 0 1015.1 -0.7 87
2019-10-14 02:00:00 22.4 22 Norte 28 Nordeste 0 1015.5 -0.1 86
2019-10-14 01:00:00 23.2 21 Norte 28 Norte 0 1015.6 0.7 80
2019-10-14 00:00:00 23 22 Norte 30 Nordeste 0 1015.8 1.8 80
2019-10-13 23:00:00 23 26 Norte 30 Nordeste 0 1015.6 2.1 80
2019-10-13 22:00:00 23.2 12 Noroeste 22 Noroeste 0 1014.9 1.5 74
2019-10-13 21:00:00 23.1 15 Noroeste 35 Noroeste 0 1014 0.6 73
2019-10-13 20:00:00 23.5 22 Noroeste 37 Noroeste 0 1013.5 0.3 71
2019-10-13 19:00:00 24.3 19 Noroeste 30 Noroeste 0 1013.4 0.3 65
2019-10-13 18:00:00 24.7 19 Noroeste 33 Noroeste 0 1013.4 0.1 67
2019-10-13 17:00:00 24.9 5 Nordeste 15 Este 0 1013.2 -0.3 63
2019-10-13 16:00:00 23.8 8 Este 17 Este 0 1013.1 -0.6 66
2019-10-13 15:00:00 24.2 10 Este 22 Este 0 1013.3 -0.4 64
2019-10-13 14:00:00 24.4 12 Este 18 Este 0 1013.5 -0.2 63
2019-10-13 13:00:00 24.4 12 Este 21 Sudeste 0 1013.7 0.7 61
2019-10-13 12:00:00 24.4 11 Este 18 Sudeste 0 1013.7 1.1 60
2019-10-13 11:00:00 24.2 8 Este 17 Este 0 1013.7 1.3 62
2019-10-13 10:00:00 24.4 5 Norte 13 Nordeste 0 1013 1 59
2019-10-13 09:00:00 22.3 2 Oeste 18 Sudoeste 0 1012.6 0.7 61
2019-10-13 08:00:00 20.9 14 Sudoeste 18 Sudoeste 0 1012.4 0.5 63
2019-10-13 07:00:00 21 11 Oeste 18 Sudoeste 0 1012 0 61
2019-10-13 06:00:00 21.4 10 Oeste 15 Oeste 0 1011.9 -0.3 62
2019-10-13 05:00:00 22.2 8 Sudoeste 13 Sudoeste 0 1011.9 -0.8 61
2019-10-13 04:00:00 22.2 7 Sudoeste 11 Sudoeste 0 1012 -0.8 62
2019-10-13 03:00:00 22.6 11 Oeste 15 Oeste 0 1012.2 -0.9 60
2019-10-13 02:00:00 22.7 10 Sudoeste 15 Sudoeste 0 1012.7 -0.2 63
2019-10-13 01:00:00 22.9 8 Norte 15 Norte 0 1012.8 0.2 66
2019-10-13 00:00:00 23 8 Noroeste 18 Norte 0 1013.1 0.9 65
2019-10-12 23:00:00 23 13 Norte 21 Norte 0 1012.9 0.9 68
2019-10-12 22:00:00 23.2 14 Norte 21 Norte 0 1012.6 0.5 69
2019-10-12 21:00:00 23.3 14 Norte 18 Norte 0 1012.2 0.1 67
2019-10-12 20:00:00 23.5 11 Norte 17 Norte 0 1012 -0.3 65
2019-10-12 19:00:00 23.8 12 Norte 17 Norte 0 1012.1 -0.4 65
2019-10-12 18:00:00 24.2 14 Norte 21 Norte 0 1012.1 -0.8 65
2019-10-12 17:00:00 24.5 12 Norte 17 Norte 0 1012.3 -1.2 67
2019-10-12 16:00:00 24.5 13 Norte 17 Norte 0 1012.5 -1.7 65
2019-10-12 15:00:00 25.1 12 Norte 17 Norte 0 1012.9 -1.6 63
2019-10-12 14:00:00 25 10 Norte 15 Norte 0 1013.5 -0.9 62
2019-10-12 13:00:00 25.2 10 Norte 15 Norte 0 1014.2 0.4 62
2019-10-12 12:00:00 24.5 11 Norte 18 Norte 0 1014.5 1 61
2019-10-12 11:00:00 23.9 13 Norte 22 Norte 0 1014.4 1.2 65
2019-10-12 10:00:00 23.3 15 Norte 18 Norte 0 1013.8 0.7 69
2019-10-12 09:00:00 22.8 16 Norte 22 Norte 0 1013.5 0.6 72
2019-10-12 08:00:00 22.7 16 Norte 21 Norte 0 1013.2 0.2 75
2019-10-12 07:00:00 22.6 15 Norte 24 Norte 0 1013.1 -0.2 77
2019-10-12 06:00:00 21.9 11 Noroeste 21 Norte 0 1012.9 -0.6 74
2019-10-12 05:00:00 22.7 17 Norte 24 Norte 0 1013 -1.2 73
2019-10-12 04:00:00 22.7 22 Norte 30 Norte 0 1013.3 -1.5 74
2019-10-12 03:00:00 22.9 25 Norte 35 Nordeste 0 1013.5 -1.4 76
2019-10-12 02:00:00 23 17 Norte 22 Norte 0 1014.2 -0.6 77
2019-10-12 01:00:00 22.9 17 Norte 24 Norte 0 1014.8 0.3 77
2019-10-12 00:00:00 22.7 16 Norte 26 Norte 0 1014.9 1.1 74
2019-10-11 23:00:00 22.9 21 Norte 30 Norte 0 1014.8 1.6 75
2019-10-11 22:00:00 23 21 Norte 30 Norte 0 1014.5 1.6 73
2019-10-11 21:00:00 23 19 Norte 26 Norte 0 1013.8 0.9 76
2019-10-11 20:00:00 23.3 19 Norte 28 Norte 0 1013.2 0.3 76
2019-10-11 19:00:00 24 18 Norte 26 Norte 0 1012.9 -0.4 73
2019-10-11 18:00:00 24.1 14 Norte 18 Norte 0 1012.9 -0.8 69
2019-10-11 17:00:00 24.9 12 Norte 18 Norte 0 1012.9 -1.6 66
2019-10-11 16:00:00 25.1 15 Norte 21 Norte 0 1013.3 -1.6 65
2019-10-11 15:00:00 25.5 12 Norte 24 Norte 0 1013.7 -1.5 64
2019-10-11 14:00:00 24.9 9 Norte 22 Nordeste 0 1014.5 -0.4 63
2019-10-11 13:00:00 24.5 14 Norte 22 Norte 0 1014.9 0.3 69
2019-10-11 12:00:00 24.4 18 Norte 24 Norte 0 1015.2 1.3 73
2019-10-11 11:00:00 23.9 17 Norte 24 Norte 0 1014.9 1.6 76
2019-10-11 10:00:00 23.7 13 Norte 18 Norte 0 1014.6 1.6 76
2019-10-11 09:00:00 22.7 11 Noroeste 21 Norte 0 1013.9 -- 78
2019-10-11 08:00:00 22.3 13 Noroeste 18 Noroeste 0 1013.3 -- 79
2019-10-11 07:00:00 21.9 13 Oeste -- -- -- 1013 -- 79
2019-10-11 06:00:00 -- -- -- -- -- -- -- -- --
2019-10-11 05:00:00 -- -- -- -- -- -- -- -- --
2019-10-11 04:00:00 -- -- -- -- -- -- -- -- --
2019-10-11 03:00:00 -- -- -- -- -- -- -- -- --
2019-10-11 02:00:00 -- -- -- -- -- -- -- -- --
2019-10-11 01:00:00 -- -- -- -- -- -- -- -- --
2019-10-11 00:00:00 -- -- -- -- -- -- -- -- --
2019-10-10 23:00:00 -- -- -- -- -- -- -- -- --
2019-10-10 22:00:00 23.1 18 Norte 24 Norte 0 1013.8 1.5 79
2019-10-10 21:00:00 23.3 17 Norte 22 Norte 0 1013.2 0.7 79
2019-10-10 20:00:00 23.7 14 Norte 21 Norte 0 1012.6 0.4 74
2019-10-10 19:00:00 24.1 12 Norte 18 Norte 0 1012.3 -0.2 73
2019-10-10 18:00:00 24.8 12 Norte 22 Norte 0 1012.5 -0.3 67
2019-10-10 17:00:00 25.5 14 Noroeste 21 Norte 0 1012.2 -1.3 64
2019-10-10 16:00:00 26.2 0 Calma 13 Este 0 1012.5 -1.8 57
2019-10-10 15:00:00 25.7 6 Este 24 Sudeste 0 1012.8 -1.7 56
2019-10-10 14:00:00 25.6 11 Sudeste 18 Este 0 1013.5 -0.8 58
2019-10-10 13:00:00 25.9 3 Norte 22 Norte 0 1014.3 0.5 61
2019-10-10 12:00:00 25.2 19 Norte 24 Norte 0 1014.5 1.2 68
2019-10-10 11:00:00 24.7 14 Norte 24 Norte 0 1014.3 1.1 71
2019-10-10 10:00:00 24 17 Norte 22 Norte 0 1013.8 0.7 72
2019-10-10 09:00:00 22.8 12 Noroeste 21 Noroeste 0 1013.3 0.5 75
2019-10-10 08:00:00 22 11 Oeste 17 Oeste 0 1013.2 0.6 72
2019-10-10 07:00:00 22.3 5 Oeste 17 Sudoeste 0 1013.1 0.4 71
2019-10-10 06:00:00 21.6 9 Oeste 21 Norte 0 1012.8 -0.4 76
2019-10-10 05:00:00 22.6 14 Norte 33 Norte 0 1012.6 -1.3 75
2019-10-10 04:00:00 22.5 25 Norte 33 Noroeste 0 1012.7 -1.7 76
2019-10-10 03:00:00 22.8 21 Norte 30 Norte 0 1013.2 -1.6 79
2019-10-10 02:00:00 22.8 18 Norte 30 Nordeste 0 1013.9 -0.7 77
2019-10-10 01:00:00 23 24 Norte 39 Norte 0 1014.4 0.2 74
2019-10-10 00:00:00 22.9 26 Norte 35 Norte 0 1014.8 1 76
2019-10-09 23:00:00 22.9 21 Norte 33 Norte 0 1014.6 1 75
2019-10-09 22:00:00 22.9 22 Norte 30 Norte 0 1014.2 1 74
2019-10-09 21:00:00 23.1 20 Norte 28 Norte 0 1013.8 0.8 75
2019-10-09 20:00:00 23.1 24 Norte 33 Norte 0 1013.6 0.5 74
2019-10-09 19:00:00 23.5 28 Norte 37 Norte 0 1013.2 -0.1 74
2019-10-09 18:00:00 23.9 23 Norte 33 Norte 0 1013 -0.7 71
2019-10-09 17:00:00 24 19 Norte 30 Norte 0 1013.1 -1.1 69
2019-10-09 16:00:00 24.5 22 Norte 35 Norte 0 1013.3 -1.1 66
2019-10-09 15:00:00 24.1 25 Norte 33 Norte 0 1013.7 -0.9 71
2019-10-09 14:00:00 24.6 27 Norte 37 Nordeste 0 1014.2 -0.3 69
2019-10-09 13:00:00 24 33 Nordeste 39 Nordeste 0 1014.4 0.5 69
2019-10-09 12:00:00 24.4 28 Norte 39 Norte 0 1014.6 1.2 69
2019-10-09 11:00:00 23.9 23 Norte 37 Norte 0 1014.5 1.4 71
2019-10-09 10:00:00 23.5 31 Norte 45 Norte 0 1013.9 0.9 73
2019-10-09 09:00:00 22.8 30 Norte 39 Nordeste 0 1013.4 0.5 74
2019-10-09 08:00:00 22.5 30 Norte 39 Norte 0 1013.1 0.1 76
2019-10-09 07:00:00 22.4 31 Norte 46 Norte 0 1013 -0.3 75
2019-10-09 06:00:00 22.4 38 Norte 46 Norte 0 1012.9 -1 76
2019-10-09 05:00:00 22.5 30 Norte 41 Norte 0 1013 -1.1 76
2019-10-09 04:00:00 22.5 30 Norte 41 Norte 0 1013.3 -0.6 73
2019-10-09 03:00:00 22.6 32 Norte 45 Norte 0 1013.9 -0.4 74
2019-10-09 02:00:00 22.7 30 Norte 42 Norte 0 1014.1 -0.2 75
2019-10-09 01:00:00 22.9 30 Norte 42 Norte 0 1013.9 -0.2 74
2019-10-09 00:00:00 23 29 Norte 37 Norte 0 1014.3 0.6 76
2019-10-08 23:00:00 23 29 Norte 39 Norte 0 1014.3 1 74
2019-10-08 22:00:00 22.9 29 Norte 39 Norte 0 1014.1 0.9 75
2019-10-08 21:00:00 22.9 30 Norte 41 Norte 0 1013.7 0.6 77
2019-10-08 20:00:00 23.1 28 Norte 37 Norte 0 1013.3 -0.1 77
2019-10-08 19:00:00 23.3 27 Norte 37 Norte 0 1013.2 -0.4 77
2019-10-08 18:00:00 23.4 25 Norte 32 Norte 0 1013.1 -0.4 75
2019-10-08 17:00:00 23.6 22 Norte 28 Norte 0 1013.4 -1 76
2019-10-08 16:00:00 23.6 24 Nordeste 37 Nordeste 0 1013.6 -1 75
2019-10-08 15:00:00 23.5 19 Nordeste 28 Nordeste 0 1013.5 -1.1 74
2019-10-08 14:00:00 23.3 11 Este 37 Nordeste 0 1014.4 0.1 77
2019-10-08 13:00:00 24.2 30 Norte 42 Nordeste 0 1014.6 0.5 73
2019-10-08 12:00:00 24.2 35 Norte 45 Norte 0 1014.6 1 72
2019-10-08 11:00:00 24 38 Norte 46 Norte 0 1014.3 1.2 73
2019-10-08 10:00:00 23.6 31 Norte 39 Norte 0 1014.1 1.2 76
2019-10-08 09:00:00 23.1 30 Norte 45 Norte 0 1013.6 0.8 79
2019-10-08 08:00:00 22.8 33 Norte 42 Norte 0 1013.1 0.4 81
2019-10-08 07:00:00 22.7 38 Norte 42 Norte 0 1012.9 0.1 80
2019-10-08 06:00:00 22.7 27 Norte 37 Norte 0 1012.8 -0.5 80
2019-10-08 05:00:00 22.6 29 Norte 35 Norte 0 1012.7 -0.9 79
2019-10-08 04:00:00 22.5 20 Norte 30 Norte 0 1012.8 -1.1 80
2019-10-08 03:00:00 22.6 20 Norte 33 Norte 0 1013.3 -1 80
2019-10-08 02:00:00 22.7 23 Norte 33 Norte 0 1013.6 -0.6 79
2019-10-08 01:00:00 22.8 24 Norte 35 Norte 0 1013.9 0.2 79
2019-10-08 00:00:00 22.9 23 Norte 33 Norte 0 1014.3 1 77
2019-10-07 23:00:00 23 24 Norte 35 Norte 0 1014.2 1.1 78
2019-10-07 22:00:00 22.9 26 Norte 39 Norte 0 1013.7 0.7 79
2019-10-07 21:00:00 23 27 Norte 35 Norte 0 1013.3 0.5 78
2019-10-07 20:00:00 23.1 26 Norte 33 Norte 0 1013.1 0.1 79
2019-10-07 19:00:00 23.5 26 Norte 39 Norte 0 1013 -0.1 78
2019-10-07 18:00:00 23.9 21 Norte 30 Norte 0 1012.8 -0.9 75
2019-10-07 17:00:00 23.8 21 Norte 30 Noroeste 0 1013 -1.1 73
2019-10-07 16:00:00 24.4 22 Norte 30 Norte 0 1013.1 -1.6 71
2019-10-07 15:00:00 24.5 23 Norte 30 Norte 0 1013.7 -1.3 69
2019-10-07 14:00:00 24 22 Norte 32 Nordeste 0 1014.1 -0.8 71
2019-10-07 13:00:00 23.7 23 Nordeste 33 Nordeste 0 1014.7 0.4 76
2019-10-07 12:00:00 24 14 Este 22 Este 0 1015 0.8 73
2019-10-07 11:00:00 23.6 15 Este 24 Este 0 1014.9 1.4 75
2019-10-07 10:00:00 23.8 3 Norte 32 Noroeste 0 1014.3 1.1 79
2019-10-07 09:00:00 23 23 Norte 45 Norte 0 1014.2 1.5 75
2019-10-07 08:00:00 22.6 31 Norte 45 Nordeste 0 1013.5 0.8 80
2019-10-07 07:00:00 22.5 29 Norte 45 Norte 0 1013.2 0.1 76
2019-10-07 06:00:00 22.7 30 Norte 46 Norte 0 1012.7 -0.9 78
2019-10-07 05:00:00 22.4 33 Norte 45 Norte 0 1012.7 -1.2 77
2019-10-07 04:00:00 22.7 29 Norte 39 Norte 0 1013.1 -1.3 80
2019-10-07 03:00:00 22.4 29 Norte 45 Norte 0 1013.6 -1.3 77
2019-10-07 02:00:00 22.7 30 Norte 48 Norte 0 1013.9 -1.4 76
2019-10-07 01:00:00 22.8 39 Norte 48 Norte 0 1014.4 -0.7 75
2019-10-07 00:00:00 22.7 35 Norte 46 Norte 0 1014.9 0.2 76
2019-10-06 23:00:00 22.9 26 Norte 39 Norte 0 1015.3 0.9 76
2019-10-06 22:00:00 22.9 27 Norte 42 Norte 0 1015.1 0.6 78
2019-10-06 21:00:00 22.9 28 Norte 46 Norte 0 1014.7 0.1 72
2019-10-06 20:00:00 23 35 Norte 46 Norte 0 1014.4 -0.3 74
2019-10-06 19:00:00 23.3 24 Norte 41 Norte 0 1014.5 -0.1 74
2019-10-06 18:00:00 23.5 24 Norte 37 Norte 0 1014.6 0 74
2019-10-06 17:00:00 23.8 28 Norte 41 Norte 0 1014.7 -0.4 74
2019-10-06 16:00:00 24.1 35 Norte 45 Norte 0 1014.6 -1 72
2019-10-06 15:00:00 24.7 33 Norte 42 Norte 0 1014.6 -1.2 70
2019-10-06 14:00:00 25 24 Norte 37 Norte 0 1015.1 -0.6 70
2019-10-06 13:00:00 25 25 Norte 41 Norte 0 1015.6 0.4 68
2019-10-06 12:00:00 24.4 29 Norte 39 Norte 0 1015.8 1.1 71
2019-10-06 11:00:00 24.3 26 Norte 39 Norte 0 1015.7 1.4 71
2019-10-06 10:00:00 23.9 31 Norte 41 Norte 0 1015.2 1.1 72
2019-10-06 09:00:00 23.1 28 Norte 52 Norte 0 1014.7 0.8 76
2019-10-06 08:00:00 22.7 31 Norte 45 Norte 0 1014.3 0.4 79
2019-10-06 07:00:00 22.8 31 Norte 45 Norte 0 1014.1 -0.1 75
2019-10-06 06:00:00 22.9 29 Norte 45 Norte 0 1013.9 -0.9 75
2019-10-06 05:00:00 22.8 26 Norte 39 Norte 0 1013.9 -0.9 78
2019-10-06 04:00:00 22.9 25 Norte 35 Norte 0 1014.2 -0.9 83
2019-10-06 03:00:00 23.1 28 Norte 39 Norte 0 1014.8 -0.8 83
2019-10-06 02:00:00 23.3 23 Norte 37 Norte 0 1014.8 -0.6 77
2019-10-06 01:00:00 23.2 23 Noroeste 39 Norte 0 1015.1 0.2 76
2019-10-06 00:00:00 23.3 23 Norte 37 Noroeste 0 1015.6 1.3 80
2019-10-05 23:00:00 23.4 22 Noroeste 33 Norte 0 1015.4 0.9 78
2019-10-05 22:00:00 23.2 23 Noroeste 35 Noroeste 0 1014.9 1 79
2019-10-05 21:00:00 23.5 26 Noroeste 39 Noroeste 0 1014.3 1 78
2019-10-05 20:00:00 23.5 26 Norte 39 Norte 0 1014.5 0.9 81
2019-10-05 19:00:00 23.7 23 Noroeste 37 Noroeste 0 1013.9 0 81
2019-10-05 18:00:00 24.5 26 Noroeste 39 Noroeste 0 1013.3 -0.7 77
2019-10-05 17:00:00 24.4 24 Noroeste 37 Norte 0 1013.6 -1 80
2019-10-05 16:00:00 25.2 18 Noroeste 32 Norte 0 1013.9 -1.3 77
2019-10-05 15:00:00 24.7 22 Noroeste 33 Noroeste 0 1014 -0.8 78
2019-10-05 14:00:00 25.1 19 Noroeste 35 Norte 0 1014.6 0.1 74
2019-10-05 13:00:00 24.6 23 Norte 37 Norte 0 1015.2 1 81
2019-10-05 12:00:00 25.4 21 Norte 35 Noroeste 0 1014.8 0.9 75
2019-10-05 11:00:00 24.9 22 Noroeste 41 Noroeste 0 1014.5 1.2 77
2019-10-05 10:00:00 24.3 27 Noroeste 41 Oeste 0 1014.2 1.2 77
2019-10-05 09:00:00 23.5 24 Noroeste 39 Norte 0 1013.9 1.1 81
2019-10-05 08:00:00 23.3 24 Noroeste 45 Noroeste 0 1013.3 0.7 78
2019-10-05 07:00:00 23.1 26 Noroeste 41 Norte 0 1013 0.7 75
2019-10-05 06:00:00 23 30 Noroeste 46 Norte 0 1012.8 0 77
2019-10-05 05:00:00 23 33 Norte 46 Norte 0 1012.6 -0.9 79
2019-10-05 04:00:00 22.9 29 Noroeste 46 Norte 0 1012.3 -1.5 78
2019-10-05 03:00:00 22.8 26 Noroeste 41 Norte 0 1012.8 -1.3 79
2019-10-05 02:00:00 22.6 25 Noroeste 46 Norte 0 1013.5 -1 80
2019-10-05 01:00:00 23.1 27 Noroeste 42 Noroeste 0 1013.8 -0.9 80
2019-10-05 00:00:00 23.2 30 Noroeste 46 Noroeste 0 1014.1 -0.2 79
2019-10-04 23:00:00 23.1 28 Norte 45 Norte 0 1014.5 0.8 80
2019-10-04 22:00:00 23.1 28 Noroeste 41 Norte 0 1014.7 1.2 80
2019-10-04 21:00:00 23.1 29 Noroeste 42 Norte 0 1014.3 0.6 81
2019-10-04 20:00:00 23 30 Noroeste 45 Noroeste 0 1013.7 -0.2 80
2019-10-04 19:00:00 23.6 30 Noroeste 42 Norte 0 1013.5 -0.4 79
2019-10-04 18:00:00 23.4 32 Norte 42 Noroeste 0 1013.7 -0.3 79
2019-10-04 17:00:00 24.3 31 Norte 45 Noroeste 0 1013.9 -0.8 76
2019-10-04 16:00:00 24.3 27 Norte 48 Noroeste 0 1013.9 -2.1 76
2019-10-04 15:00:00 24.8 29 Noroeste 41 Noroeste 0 1014 -2.2 75
2019-10-04 14:00:00 24.6 30 Noroeste 42 Norte 0 1014.7 -1.3 74
2019-10-04 13:00:00 24.4 26 Norte 42 Noroeste 0 1016 0.3 76
2019-10-04 12:00:00 24.1 26 Noroeste 45 Norte 0 1016.2 0.7 77
2019-10-04 11:00:00 24.1 32 Noroeste 42 Noroeste 0 1016 0.6 75
2019-10-04 10:00:00 23.6 30 Noroeste 42 Noroeste 0 1015.7 0.8 78
2019-10-04 09:00:00 22.9 27 Noroeste 46 Noroeste 0 1015.5 0.9 82
2019-10-04 08:00:00 22.7 26 Noroeste 45 Noroeste 0 1015.4 0.4 83
2019-10-04 07:00:00 22.5 30 Noroeste 45 Noroeste 0 1014.9 -0.6 83
2019-10-04 06:00:00 22.3 32 Noroeste 46 Norte 0 1014.6 -1.1 83
2019-10-04 05:00:00 22.5 34 Noroeste 48 Norte 0 1015 -0.8 84
2019-10-04 04:00:00 22.4 32 Noroeste 42 Norte 0 1015.5 -0.7 86
2019-10-04 03:00:00 22.6 23 Noroeste 35 Noroeste 0 1015.7 -0.9 87
2019-10-04 02:00:00 22.7 21 Noroeste 32 Oeste 0 1015.8 -0.9 86
2019-10-04 01:00:00 22.8 18 Noroeste 33 Noroeste 0 1016.2 -0.1 86
2019-10-04 00:00:00 22.9 22 Noroeste 42 Noroeste 0 1016.6 0.6 85
2019-10-03 23:00:00 22.8 28 Norte 39 Norte 0 1016.7 1.1 86
2019-10-03 22:00:00 22.9 24 Noroeste 35 Norte 0 1016.3 0.9 86
2019-10-03 21:00:00 23.1 23 Noroeste 32 Noroeste 0 1016 0.4 86
2019-10-03 20:00:00 23.3 19 Noroeste 33 Noroeste 0 1015.6 -0.3 85
2019-10-03 19:00:00 23.9 18 Norte 32 Oeste 0 1015.4 -0.9 82
2019-10-03 18:00:00 24.1 18 Noroeste 37 Oeste 0 1015.6 -1 81
2019-10-03 17:00:00 24.4 18 Norte 32 Norte 0 1015.9 -1 80
2019-10-03 16:00:00 24.7 15 Norte 33 Noroeste 0 1016.3 -1.2 80
2019-10-03 15:00:00 24.8 19 Norte 33 Norte 0 1016.6 -1.1 80
2019-10-03 14:00:00 24.9 22 Norte 35 Norte 0 1016.9 -0.9 79
2019-10-03 13:00:00 25.1 22 Noroeste 37 Noroeste 0 1017.5 0 79
2019-10-03 12:00:00 24.8 17 Noroeste 33 Noroeste 0 1017.7 0.7 81
2019-10-03 11:00:00 24.1 16 Noroeste 33 Noroeste 0 1017.8 1.5 84
2019-10-03 10:00:00 23.5 19 Noroeste 32 Noroeste 0 1017.5 1.6 86
2019-10-03 09:00:00 23.1 18 Noroeste 33 Norte 0 1017 1.3 87
2019-10-03 08:00:00 22.9 18 Noroeste 30 Noroeste 0 1016.3 0.6 87
2019-10-03 07:00:00 22.9 15 Noroeste 30 Norte 0 1015.9 0.4 88
2019-10-03 06:00:00 22.8 19 Noroeste 32 Noroeste 0 1015.7 0.2 88
2019-10-03 05:00:00 22.9 15 Noroeste 30 Noroeste 0 1015.7 -0.1 88
2019-10-03 04:00:00 22.9 22 Noroeste 33 Oeste 0 1015.5 -0.4 88
2019-10-03 03:00:00 23 20 Noroeste 33 Noroeste 0 1015.5 -0.7 87
2019-10-03 02:00:00 23.1 19 Noroeste 35 Noroeste 0 1015.8 0 86
2019-10-03 01:00:00 23.2 25 Noroeste 39 Noroeste 0 1015.9 0.6 87
2019-10-03 00:00:00 23.2 24 Noroeste 37 Noroeste 0 1016.2 1.3 88
2019-10-02 23:00:00 23.2 23 Noroeste 39 Norte 0 1015.8 1.3 88
2019-10-02 22:00:00 23.4 30 Norte 41 Norte 0 1015.3 0.8 86
2019-10-02 21:00:00 23.5 26 Noroeste 41 Norte 0 1014.9 0.2 83
2019-10-02 20:00:00 23.4 31 Norte 42 Norte 0 1014.5 -0.3 86
2019-10-02 19:00:00 23.8 31 Norte 42 Norte 0 1014.5 -0.2 85
2019-10-02 18:00:00 24.4 29 Noroeste 39 Norte 0 1014.7 0 82
2019-10-02 17:00:00 24.6 22 Noroeste 30 Norte 0 1014.8 -0.3 83
2019-10-02 16:00:00 24.9 21 Norte 28 Norte 0 1014.7 -0.7 82
2019-10-02 15:00:00 26.1 14 Norte 18 Norte 0 1014.7 -0.8 77
2019-10-02 14:00:00 25.9 11 Norte 26 Norte 0 1015.1 -0.3 78
2019-10-02 13:00:00 25.6 13 Norte 18 Norte 0 1015.4 0.3 79
2019-10-02 12:00:00 25.1 13 Norte 24 Norte 0 1015.5 1.2 80
2019-10-02 11:00:00 24.5 8 Norte 18 Noroeste 0 1015.4 1.5 83
2019-10-02 10:00:00 23.4 12 Noroeste 28 Norte 0 1015.1 1.7 87
2019-10-02 09:00:00 22.8 19 Noroeste 33 Noroeste 0 1014.3 1.1 89
2019-10-02 08:00:00 22.6 19 Noroeste 32 Noroeste 0 1013.9 0.5 88
2019-10-02 07:00:00 22.6 22 Noroeste 33 Noroeste 0 1013.4 -0.5 86
2019-10-02 06:00:00 22.5 21 Noroeste 33 Noroeste 0 1013.2 -1 87
2019-10-02 05:00:00 22.5 21 Noroeste 33 Noroeste 0 1013.4 -1.1 87
2019-10-02 04:00:00 22.7 17 Noroeste 35 Noroeste 0 1013.9 -1.1 86
2019-10-02 03:00:00 22.9 23 Norte 42 Noroeste 0 1014.2 -1 86
2019-10-02 02:00:00 23 25 Noroeste 39 Noroeste 0 1014.5 -0.5 85
2019-10-02 01:00:00 23.2 25 Noroeste 42 Noroeste 0 1015 0.2 85
2019-10-02 00:00:00 23.3 26 Noroeste 37 Noroeste 0 1015.2 1.1 86
2019-10-01 23:00:00 23.4 24 Noroeste 33 Noroeste 0 1015 1.5 86
2019-10-01 22:00:00 23.4 21 Noroeste 35 Noroeste 0 1014.8 1.3 86
2019-10-01 21:00:00 23.5 21 Noroeste 30 Oeste 0 1014.1 0.9 85
2019-10-01 20:00:00 23.6 15 Noroeste 28 Noroeste 0 1013.5 0.2 84
2019-10-01 19:00:00 24.1 14 Noroeste 26 Norte 0 1013.5 0 83
2019-10-01 18:00:00 24.6 16 Noroeste 32 Oeste 0 1013.2 -0.8 80
2019-10-01 17:00:00 25.1 14 Noroeste 26 Noroeste 0 1013.3 -1.6 78
2019-10-01 16:00:00 25.1 15 Norte 32 Noroeste 0 1013.5 -1.7 78
2019-10-01 15:00:00 25.1 20 Noroeste 32 Noroeste 0 1014 -1.3 77
2019-10-01 14:00:00 24.8 17 Norte 32 Norte 0 1014.9 -0.2 78
2019-10-01 13:00:00 25 17 Noroeste 32 Norte 0 1015.2 0.7 77
2019-10-01 12:00:00 24.6 22 Noroeste 35 Norte 0 1015.3 1.5 79
2019-10-01 11:00:00 23.7 22 Norte 35 Norte 0 1015.1 2.1 82
2019-10-01 10:00:00 23 27 Norte 39 Noroeste 0 1014.5 2.2 84
2019-10-01 09:00:00 22.7 28 Norte 37 Noroeste 0 1013.8 1.8 86
2019-10-01 08:00:00 22.7 21 Norte 35 Norte 0 1013 1.3 87
2019-10-01 07:00:00 22.8 24 Norte 37 Noroeste 0 1012.3 0.3 87
2019-10-01 06:00:00 22.8 24 Noroeste 37 Norte 0 1012 -0.3 86
2019-10-01 05:00:00 22.8 24 Noroeste 41 Noroeste 0 1011.7 -1.3 86
2019-10-01 04:00:00 22.7 26 Noroeste 37 Norte 0 1012 -1.2 86
2019-10-01 03:00:00 22.8 26 Noroeste 39 Noroeste 0 1012.3 -0.8 86
2019-10-01 02:00:00 22.8 23 Norte 30 Norte 0 1013 -0.3 86
2019-10-01 01:00:00 22.9 20 Norte 33 Noroeste 0 1013.2 0.4 87
2019-10-01 00:00:00 22.9 24 Noroeste 39 Norte 0 1013.1 0.9 85
2019-09-30 23:00:00 23 22 Noroeste 37 Noroeste 0 1013.3 1.4 84
2019-09-30 22:00:00 23.2 28 Noroeste 39 Noroeste 0 1012.8 1.3 82
2019-09-30 21:00:00 23.2 26 Noroeste 37 Norte 0 1012.2 0.4 82
2019-09-30 20:00:00 23.5 28 Norte 45 Noroeste 0 1011.9 -0.1 83
2019-09-30 19:00:00 23.8 30 Noroeste 42 Norte 0 1011.5 -0.6 79
2019-09-30 18:00:00 24 31 Noroeste 41 Norte 0 1011.8 -0.2 79
2019-09-30 17:00:00 24.1 30 Norte 39 Noroeste 0 1012 -0.5 79
2019-09-30 16:00:00 24 34 Noroeste 42 Norte 0 1012.1 -0.5 78
2019-09-30 15:00:00 24.2 32 Noroeste 42 Norte 0 1012 -0.9 79
2019-09-30 14:00:00 24.2 27 Norte 37 Norte 0 1012.5 -0.1 80
2019-09-30 13:00:00 24.4 26 Norte 33 Norte 0 1012.6 0.1 80
2019-09-30 12:00:00 24.5 19 Norte 30 Norte 0 1012.9 0.8 78
2019-09-30 11:00:00 23.9 21 Norte 30 Norte 0 1012.6 0.7 79
2019-09-30 10:00:00 23.5 22 Norte 33 Norte 0 1012.5 0.8 80
2019-09-30 09:00:00 23 23 Norte 33 Norte 0 1012.1 0.8 83
2019-09-30 08:00:00 22.8 24 Noroeste 39 Norte 0 1011.9 0.4 82
2019-09-30 07:00:00 22.9 23 Norte 35 Norte 0 1011.7 -0.3 83
2019-09-30 06:00:00 22.9 26 Norte 37 Norte 0 1011.3 -0.5 83
2019-09-30 05:00:00 23 24 Noroeste 35 Norte 0 1011.5 -0.7 83
2019-09-30 04:00:00 22.9 25 Norte 37 Norte 0 1012 -0.7 84
2019-09-30 03:00:00 22.9 26 Noroeste 39 Norte 0 1011.8 -1.1 84
2019-09-30 02:00:00 22.9 24 Noroeste 39 Norte 0 1012.2 -0.5 84
2019-09-30 01:00:00 22.9 23 Noroeste 37 Norte 0 1012.7 0.1 83
2019-09-30 00:00:00 23.1 27 Noroeste 39 Noroeste 0 1012.9 0.8 82
2019-09-29 23:00:00 23.1 27 Noroeste 39 Noroeste 0 1012.7 0.8 82
2019-09-29 22:00:00 23.2 28 Noroeste 42 Norte 0 1012.6 0.4 81
2019-09-29 21:00:00 23.2 33 Noroeste 41 Noroeste 0 1012.1 -0.3 81
2019-09-29 20:00:00 23.4 29 Noroeste 37 Noroeste 0 1011.9 -0.7 80
2019-09-29 19:00:00 23.7 23 Norte 32 Norte 0 1012.2 -0.9 79
2019-09-29 18:00:00 24.5 22 Norte 32 Norte 0 1012.4 -1.1 74
2019-09-29 17:00:00 24.5 22 Norte 32 Norte 0 1012.6 -1.5 77
2019-09-29 16:00:00 24.8 23 Norte 30 Norte 0 1013.1 -1.8 73
2019-09-29 15:00:00 24.7 19 Norte 26 Norte 0 1013.5 -1.2 71
2019-09-29 14:00:00 24.9 14 Norte 22 Nordeste 0 1014.1 -0.3 73
2019-09-29 13:00:00 23.7 14 Este 24 Este 0 1014.9 0.5 81
2019-09-29 12:00:00 24.6 18 Este 30 Sudeste 0 1014.7 0.8 75
2019-09-29 11:00:00 24.5 14 Norte 33 Norte 0 1014.4 1 76
2019-09-29 10:00:00 23.8 26 Norte 37 Norte 0 1014.4 1.4 79
2019-09-29 09:00:00 22.9 25 Norte 35 Norte 0 1013.9 1.1 80
2019-09-29 08:00:00 22.8 24 Norte 39 Norte 0 1013.4 0.4 81
2019-09-29 07:00:00 22.7 24 Norte 35 Norte 0 1013 -0.5 82
2019-09-29 06:00:00 22.7 22 Norte 32 Norte 0 1012.8 -1.1 82
2019-09-29 05:00:00 22.6 23 Norte 32 Norte 0 1013 -1.3 83
2019-09-29 04:00:00 22.7 22 Noroeste 37 Norte 0 1013.5 -1.2 76
2019-09-29 03:00:00 22.8 24 Norte 35 Norte 0 1013.9 -1.3 80
2019-09-29 02:00:00 22.7 23 Noroeste 35 Noroeste 0 1014.3 -1.1 82
2019-09-29 01:00:00 22.9 23 Noroeste 30 Noroeste 0 1014.7 -0.4 71
2019-09-29 00:00:00 22.9 26 Norte 35 Norte 0 1015.2 0.4 80
2019-09-28 23:00:00 23 22 Norte 30 Norte 0 1015.4 1 81
2019-09-28 22:00:00 23.1 24 Norte 32 Norte 0 1015.1 0.8 81
2019-09-28 21:00:00 23.1 23 Norte 32 Norte 0 1014.8 0.2 81
2019-09-28 20:00:00 23.1 23 Norte 35 Norte 0 1014.4 -0.6 80
2019-09-28 19:00:00 23.7 24 Norte 33 Norte 0 1014.3 -0.9 76
2019-09-28 18:00:00 24.3 21 Norte 30 Norte 0 1014.6 -1.2 75
2019-09-28 17:00:00 24.5 17 Norte 26 Norte 0 1015 -1.2 73
2019-09-28 16:00:00 25.3 12 Norte 18 Norte 0 1015.2 -1.4 70
2019-09-28 15:00:00 23.9 12 Nordeste 22 Nordeste 0 1015.8 -0.7 75
2019-09-28 14:00:00 24 14 Este 18 Nordeste 0 1016.2 0.1 79
2019-09-28 13:00:00 23.9 14 Norte 21 Norte 0 1016.6 0.7 74
2019-09-28 12:00:00 24.7 16 Norte 39 Norte 0 1016.5 1 75
2019-09-28 11:00:00 24.1 25 Norte 37 Norte 0 1016.1 1.3 74
2019-09-28 10:00:00 23.3 22 Norte 30 Norte 0 1015.9 1.2 78
2019-09-28 09:00:00 23 23 Norte 33 Norte 0 1015.5 1 78
2019-09-28 08:00:00 22.7 23 Norte 32 Norte 0 1014.8 0.2 81
2019-09-28 07:00:00 22.6 27 Norte 35 Norte 0 1014.7 -0.3 80
2019-09-28 06:00:00 22.8 28 Norte 41 Norte 0 1014.5 -1 80
2019-09-28 05:00:00 22.8 28 Norte 37 Norte 0 1014.6 -1.1 80
2019-09-28 04:00:00 22.9 25 Norte 32 Norte 0 1015 -1.3 82
2019-09-28 03:00:00 23 26 Norte 39 Norte 0 1015.5 -1.3 80
2019-09-28 02:00:00 22.9 23 Norte 33 Norte 0 1015.7 -1 80
2019-09-28 01:00:00 22.9 23 Norte 33 Norte 0 1016.3 0.4 80
2019-09-28 00:00:00 23 26 Norte 33 Norte 0 1016.8 1.2 82
2019-09-27 23:00:00 23.2 26 Norte 35 Norte 0 1016.7 1.3 81
2019-09-27 22:00:00 23.1 24 Norte 32 Norte 0 1015.9 0.5 81
2019-09-27 21:00:00 23.3 22 Norte 30 Norte 0 1015.6 0.3 77
2019-09-27 20:00:00 23.4 17 Norte 30 Norte 0 1015.4 0.1 74
2019-09-27 19:00:00 23.8 24 Norte 37 Norte 0 1015.4 0 78
2019-09-27 18:00:00 24.3 27 Norte 39 Norte 0 1015.3 -0.7 75
2019-09-27 17:00:00 25 21 Norte 30 Norte 0 1015.3 -1.3 73
2019-09-27 16:00:00 25 23 Norte 33 Norte 0 1015.4 -1.9 69
2019-09-27 15:00:00 25.2 23 Norte 33 Norte 0 1016 -1.5 69
2019-09-27 14:00:00 25.6 24 Norte 32 Norte 0 1016.6 -0.6 70
2019-09-27 13:00:00 25.5 20 Norte 32 Norte 0 1017.3 0.6 72
2019-09-27 12:00:00 25 22 Norte 32 Norte 0 1017.5 1.3 73
2019-09-27 11:00:00 24.5 24 Norte 37 Norte 0 1017.2 1.2 74
2019-09-27 10:00:00 24.1 26 Norte 37 Norte 0 1016.7 1 76
2019-09-27 09:00:00 23.4 31 Norte 39 Norte 0 1016.2 0.7 77
2019-09-27 08:00:00 23 24 Norte 39 Norte 0 1016 0.5 80
2019-09-27 07:00:00 22.9 23 Norte 35 Norte 0 1015.7 -0.3 81
2019-09-27 06:00:00 22.9 31 Norte 39 Norte 0 1015.5 -0.8 80
2019-09-27 05:00:00 23 27 Norte 45 Norte 0 1015.5 -1.3 81
2019-09-27 04:00:00 23 27 Norte 39 Norte 0 1016 -1.1 81
2019-09-27 03:00:00 23 27 Noroeste 39 Norte 0 1016.3 -0.9 80
2019-09-27 02:00:00 23.1 23 Norte 32 Norte 0 1016.8 -0.4 78
2019-09-27 01:00:00 23.1 17 Norte 28 Norte 0 1017.1 0.4 77
2019-09-27 00:00:00 23.1 18 Norte 26 Norte 0 1017.2 1.3 78
2019-09-26 23:00:00 23.4 21 Norte 32 Norte 0 1017.2 1.9 76
2019-09-26 22:00:00 23.4 25 Norte 37 Norte 0 1016.7 1.6 77
2019-09-26 21:00:00 23.5 21 Noroeste 35 Norte 0 1015.9 0.8 76
2019-09-26 20:00:00 23.5 19 Norte 33 Noroeste 0 1015.3 0.2 78
2019-09-26 19:00:00 24.2 24 Norte 32 Norte 0 1015.1 0 77
2019-09-26 18:00:00 25.2 11 Noroeste 21 Noroeste 0 1015.1 -0.6 70
2019-09-26 17:00:00 24.8 9 Nordeste 30 Norte 0 1015.1 -1 77
2019-09-26 16:00:00 25.5 19 Norte 30 Norte 0 1015.1 -1.3 73
2019-09-26 15:00:00 25 16 Norte 35 Norte 0 1015.7 -0.8 76
2019-09-26 14:00:00 25.7 19 Norte 32 Norte 0 1016.1 -0.6 73
2019-09-26 13:00:00 25.7 20 Noroeste 30 Norte 0 1016.4 0.2 71
2019-09-26 12:00:00 25.5 17 Norte 30 Norte 0 1016.5 0.8 74
2019-09-26 11:00:00 25 19 Norte 32 Norte 0 1016.7 1.8 76
2019-09-26 10:00:00 24 14 Norte 24 Norte 0 1016.2 1.8 81
2019-09-26 09:00:00 23 15 Norte 42 Norte 0 1015.7 1.6 87
2019-09-26 08:00:00 23.2 18 Noroeste 35 Noroeste 0 1014.9 1.1 86
2019-09-26 07:00:00 23.2 16 Noroeste 37 Noroeste 0 1014.4 0.3 86
2019-09-26 06:00:00 23.1 23 Noroeste 37 Noroeste 0 1014.1 -0.5 84
2019-09-26 05:00:00 22.9 22 Noroeste 32 Norte 0 1013.8 -1.2 81
2019-09-26 04:00:00 23 17 Noroeste 28 Norte 0 1014.1 -1.1 84
2019-09-26 03:00:00 23.1 19 Noroeste 30 Noroeste 0 1014.6 -0.9 82
2019-09-26 02:00:00 23 22 Norte 39 Norte 0 1015 -0.3 82
2019-09-26 01:00:00 23.2 25 Norte 35 Norte 0 1015.2 0.3 80
2019-09-26 00:00:00 23.2 23 Noroeste 35 Norte 0 1015.5 1 81
2019-09-25 23:00:00 23.2 25 Noroeste 37 Noroeste 0 1015.3 0.9 80
2019-09-25 22:00:00 23.2 25 Norte 35 Noroeste 0 1014.9 0.6 79
2019-09-25 21:00:00 23.3 24 Norte 35 Norte 0 1014.5 0.3 80
2019-09-25 20:00:00 23.5 25 Norte 37 Norte 0 1014.4 0.1 81
2019-09-25 19:00:00 23.7 22 Norte 33 Norte 0 1014.3 -0.3 79
2019-09-25 18:00:00 24.1 27 Norte 39 Norte 0 1014.2 -1 76
2019-09-25 17:00:00 24.6 26 Norte 37 Norte 0 1014.3 -1.5 74
2019-09-25 16:00:00 25.3 25 Norte 32 Norte 0 1014.6 -2.1 71
2019-09-25 15:00:00 24.9 22 Norte 30 Norte 0 1015.2 -1.7 70
2019-09-25 14:00:00 24.7 25 Norte 35 Norte 0 1015.8 -0.9 73
2019-09-25 13:00:00 24.6 28 Norte 39 Norte 0 1016.7 0 74
2019-09-25 12:00:00 24.6 27 Norte 35 Norte 0 1016.9 0.4 73
2019-09-25 11:00:00 24 26 Norte 37 Noroeste 0 1016.7 1 72
2019-09-25 10:00:00 23.9 24 Norte 35 Norte 0 1016.7 1.2 74
2019-09-25 09:00:00 23.1 27 Norte 37 Norte 0 1016.5 1 76
2019-09-25 08:00:00 22.8 29 Norte 39 Norte 0 1015.7 0.1 78
2019-09-25 07:00:00 22.7 28 Norte 39 Norte 0 1015.5 -0.4 77
2019-09-25 06:00:00 22.8 25 Norte 37 Norte 0 1015.5 -0.6 74
2019-09-25 05:00:00 22.8 26 Norte 39 Norte 0 1015.6 -1.1 76
2019-09-25 04:00:00 23 26 Norte 37 Norte 0 1015.9 -1.2 77
2019-09-25 03:00:00 23 27 Norte 33 Norte 0 1016.1 -1 75
2019-09-25 02:00:00 23 25 Norte 41 Norte 0 1016.7 -0.4 73
2019-09-25 01:00:00 23 24 Norte 41 Norte 0 1017.1 0.1 76
2019-09-25 00:00:00 23.1 28 Norte 39 Norte 0 1017.1 0.6 78
2019-09-24 23:00:00 23.1 33 Norte 41 Norte 0 1017.1 0.8 79
2019-09-24 22:00:00 23.1 27 Norte 37 Norte 0 1017 0.9 78
2019-09-24 21:00:00 23 26 Norte 41 Norte 0 1016.5 0.2 79
2019-09-24 20:00:00 23.2 29 Norte 41 Norte 0 1016.3 0.1 78
2019-09-24 19:00:00 23.4 32 Norte 45 Nordeste 0 1016.1 -0.3 76
2019-09-24 18:00:00 23.6 30 Norte 39 Norte 0 1016.3 -0.7 74
2019-09-24 17:00:00 23.8 30 Norte 37 Norte 0 1016.2 -1.5 74
2019-09-24 16:00:00 24.1 28 Norte 37 Norte 0 1016.4 -1.8 74
2019-09-24 15:00:00 24 29 Norte 39 Norte 0 1017 -1.4 77
2019-09-24 14:00:00 24.6 30 Norte 41 Nordeste 0 1017.7 -0.8 75
2019-09-24 13:00:00 25.4 30 Norte 37 Norte 0 1018.2 0.1 70
2019-09-24 12:00:00 24.8 29 Norte 37 Norte 0 1018.4 0.8 72
2019-09-24 11:00:00 24.4 28 Norte 37 Norte 0 1018.5 1.6 75
2019-09-24 10:00:00 23.6 25 Norte 33 Norte 0 1018.1 1.7 78
2019-09-24 09:00:00 23 27 Norte 33 Norte 0 1017.6 1.6 78
2019-09-24 08:00:00 22.8 27 Norte 37 Norte 0 1016.9 1 78
2019-09-24 07:00:00 22.9 31 Norte 41 Norte 0 1016.4 0.3 77
2019-09-24 06:00:00 22.8 30 Norte 37 Norte 0 1016 -0.5 74
2019-09-24 05:00:00 22.7 29 Norte 35 Norte 0 1015.9 -1.1 79
2019-09-24 04:00:00 22.6 24 Norte 32 Norte 0 1016.1 -1.4 79
2019-09-24 03:00:00 22.8 21 Norte 30 Norte 0 1016.5 -1.1 79
2019-09-24 02:00:00 23 21 Norte 30 Nordeste 0 1017 -0.7 78
2019-09-24 01:00:00 23.1 25 Norte 32 Nordeste 0 1017.5 0.3 78
2019-09-24 00:00:00 23 24 Norte 33 Norte 0 1017.6 0.7 79
2019-09-23 23:00:00 23.3 25 Norte 39 Norte 0 1017.7 1 80
2019-09-23 22:00:00 23.4 28 Norte 35 Norte 0 1017.2 0.8 80
2019-09-23 21:00:00 23.5 22 Norte 30 Norte 0 1016.9 0.5 76
2019-09-23 20:00:00 23.7 22 Norte 32 Norte 0 1016.7 0.1 74
2019-09-23 19:00:00 24 27 Norte 35 Norte 0 1016.4 0 75
2019-09-23 18:00:00 24.3 24 Norte 32 Norte 0 1016.4 0 73
2019-09-23 17:00:00 24.6 21 Norte 32 Norte 0 1016.6 0.1 75
2019-09-23 16:00:00 24.8 27 Norte 35 Norte 0 1016.4 -1.2 73
2019-09-23 15:00:00 25.5 32 Norte 42 Norte 0 1016.4 -1.2 70
2019-09-23 14:00:00 25.4 33 Norte 41 Norte 0 1016.5 -0.8 75
2019-09-23 13:00:00 25.8 23 Norte 28 Norte 0 1017.6 0.8 71
2019-09-23 12:00:00 25.5 18 Norte 24 Norte 0 1017.6 1.6 71
2019-09-23 11:00:00 25.4 19 Norte 26 Norte 0 1017.3 1.5 72
2019-09-23 10:00:00 24.2 21 Norte 30 Norte 0 1016.8 1.2 78
2019-09-23 09:00:00 23.6 24 Norte 35 Norte 0 1016 0.8 80
2019-09-23 08:00:00 23 25 Norte 35 Norte 0 1015.8 0.7 82
2019-09-23 07:00:00 23.1 22 Norte 30 Norte 0 1015.6 0.4 83
2019-09-23 06:00:00 23.1 21 Norte 30 Norte 0 1015.2 -0.2 85
2019-09-23 05:00:00 23.4 20 Norte 28 Norte 0 1015.1 -0.6 84
2019-09-23 04:00:00 23.3 13 Nordeste 24 Nordeste 0 1015.2 -1 84
2019-09-23 03:00:00 23.3 21 Nordeste 28 Nordeste 0 1015.4 -0.8 89
2019-09-23 02:00:00 23.6 17 Nordeste 24 Nordeste 0 1015.7 -0.5 90
2019-09-23 01:00:00 23.8 14 Norte 28 Norte 0 1016.2 0.5 88
2019-09-23 00:00:00 23.8 20 Norte 28 Norte 0 1016.2 1.1 88
2019-09-22 23:00:00 23.7 17 Norte 30 Norte 0 1016.2 1.6 88
2019-09-22 22:00:00 23.8 16 Noroeste 35 Nordeste 0 1015.7 1.3 88
2019-09-22 21:00:00 24 28 Norte 35 Norte 0 1015.1 1 89
2019-09-22 20:00:00 24.4 22 Norte 28 Noroeste 0 1014.6 0.4 87
2019-09-22 19:00:00 25 20 Noroeste 33 Noroeste 0 1014.4 0.3 80
2019-09-22 18:00:00 25.5 23 Noroeste 32 Noroeste 0 1014.1 -0.7 78
2019-09-22 17:00:00 26.3 22 Noroeste 33 Noroeste 0 1014.2 -0.9 74
2019-09-22 16:00:00 26.3 19 Norte 30 Norte 0 1014.1 -1.3 73
2019-09-22 15:00:00 26.6 14 Norte 22 Norte 0 1014.8 -0.6 74
2019-09-22 14:00:00 26.8 18 Norte 30 Norte 0 1015.1 -0.5 72
2019-09-22 13:00:00 25.4 17 Norte 30 Noroeste 0 1015.4 0.3 78
2019-09-22 12:00:00 25.5 18 Noroeste 26 Noroeste 0 1015.4 0.6 75
2019-09-22 11:00:00 26 13 Norte 24 Norte 0 1015.6 1.2 72
2019-09-22 10:00:00 25.3 14 Norte 21 Norte 0 1015.1 1.1 69
2019-09-22 09:00:00 24.5 14 Norte 21 Noroeste 0 1014.8 1.2 73
2019-09-22 08:00:00 23.9 14 Noroeste 30 Oeste 0 1014.4 1 71
2019-09-22 07:00:00 23.3 16 Norte 26 Norte 0 1014 0.6 78
2019-09-22 06:00:00 23.1 17 Norte 26 Norte 0 1013.6 -0.2 81
2019-09-22 05:00:00 23 18 Noroeste 26 Noroeste 0 1013.4 -0.6 81
2019-09-22 04:00:00 23.1 17 Noroeste 22 Noroeste 0 1013.4 -1.1 85
2019-09-22 03:00:00 23.6 17 Norte 30 Noroeste 0 1013.8 -0.5 83
2019-09-22 02:00:00 23.8 14 Noroeste 26 Noroeste 0 1014 -0.4 74
2019-09-22 01:00:00 23.8 16 Noroeste 26 Noroeste 0 1014.5 0.4 74
2019-09-22 00:00:00 24.2 15 Oeste 30 Noroeste 0 1014.3 0.9 70
2019-09-21 23:00:00 24.2 15 Oeste 30 Noroeste 0 1014.4 1.3 70
2019-09-21 22:00:00 23.8 18 Noroeste 30 Noroeste 0 1014.1 1.1 77
2019-09-21 21:00:00 23.7 19 Noroeste 30 Noroeste 0 1013.4 0.6 78
2019-09-21 20:00:00 23.9 19 Norte 28 Norte 0 1013.1 0.1 78
2019-09-21 19:00:00 24.8 15 Noroeste 28 Norte 0 1013 0.1 75
2019-09-21 18:00:00 24.8 18 Norte 28 Norte 0 1012.8 -0.6 76
2019-09-21 17:00:00 24.8 17 Este 30 Este 0 1013 -0.7 75
2019-09-21 16:00:00 24.7 22 Norte 39 Noroeste 0 1012.9 -1.1 75
2019-09-21 15:00:00 25.5 24 Norte 32 Norte 0 1013.4 -0.5 73
2019-09-21 14:00:00 25.2 26 Norte 35 Norte 0 1013.7 -0.2 72
2019-09-21 13:00:00 25.4 17 Norte 33 Norte 0 1014 0.6 71
2019-09-21 12:00:00 25.3 27 Norte 32 Norte 0 1013.9 0.9 71
2019-09-21 11:00:00 24.6 20 Norte 30 Norte 0 1013.9 1.2 71
2019-09-21 10:00:00 24.2 21 Norte 28 Norte 0 1013.4 0.9 71
2019-09-21 09:00:00 23.4 14 Norte 21 Noroeste 0 1013 0.8 68
2019-09-21 08:00:00 22.1 8 Oeste 18 Oeste 0 1012.7 0.6 69
2019-09-21 07:00:00 22.3 8 Oeste 22 Noroeste 0 1012.5 0.3 68
2019-09-21 06:00:00 22 13 Oeste 18 Oeste 0 1012.2 -0.5 71
2019-09-21 05:00:00 22.4 9 Norte 17 Norte 0 1012.1 -0.7 76
2019-09-21 04:00:00 22.4 9 Noroeste 17 Oeste 0 1012.2 -1 76
2019-09-21 03:00:00 22.5 11 Noroeste 21 Noroeste 0 1012.7 -0.9 78
2019-09-21 02:00:00 22.5 12 Noroeste 18 Noroeste 0 1012.8 -1 79
2019-09-21 01:00:00 22.8 14 Norte 22 Norte 0 1013.2 -0.4 84
2019-09-21 00:00:00 23 18 Norte 24 Norte 0 1013.6 0.5 83
2019-09-20 23:00:00 23.1 16 Noroeste 26 Noroeste 0 1013.8 1.1 82
2019-09-20 22:00:00 23.2 15 Norte 24 Noroeste 0 1013.6 1.3 83
2019-09-20 21:00:00 23.3 19 Norte 24 Norte 0 1013.1 0.9 81
2019-09-20 20:00:00 23.5 19 Norte 30 Noroeste 0 1012.7 0.2 80
2019-09-20 19:00:00 24.3 22 Noroeste 37 Noroeste 0 1012.3 -0.4 74
2019-09-20 18:00:00 24.4 22 Norte 32 Norte 0 1012.2 -0.9 74
2019-09-20 17:00:00 24.7 19 Norte 32 Norte 0 1012.5 -1.1 72
2019-09-20 16:00:00 25.5 23 Norte 35 Norte 0 1012.7 -1.6 69
2019-09-20 15:00:00 26 23 Noroeste 42 Norte 0 1013.1 -1.6 62
2019-09-20 14:00:00 25.6 19 Norte 33 Norte 0 1013.6 -1.3 66
2019-09-20 13:00:00 24.7 24 Norte 33 Norte 0 1014.3 -0.5 74
2019-09-20 12:00:00 24.5 23 Norte 32 Norte 0 1014.7 0.8 74
2019-09-20 11:00:00 24.4 19 Norte 30 Noroeste 0 1014.9 1.6 75
2019-09-20 10:00:00 23.6 20 Noroeste 28 Noroeste 0 1014.8 1.7 75
2019-09-20 09:00:00 23.1 19 Noroeste 28 Norte 0 1013.9 1.2 78
2019-09-20 08:00:00 22.6 22 Norte 30 Norte 0 1013.3 0.4 80
2019-09-20 07:00:00 22.4 24 Norte 33 Norte 0 1013.1 -0.4 79
2019-09-20 06:00:00 22.5 23 Norte 32 Noroeste 0 1012.7 -1.3 79
2019-09-20 05:00:00 22.4 21 Noroeste 32 Noroeste 0 1012.9 -1.4 75
2019-09-20 04:00:00 22.3 22 Noroeste 35 Norte 0 1013.5 -0.8 80
2019-09-20 03:00:00 22.8 29 Norte 37 Norte 0 1014 -0.8 78
2019-09-20 02:00:00 22.7 25 Noroeste 35 Norte 0 1014.3 -0.7 79
2019-09-20 01:00:00 22.7 28 Noroeste 39 Norte 0 1014.3 -0.3 80
2019-09-20 00:00:00 22.9 29 Noroeste 41 Norte 0 1014.8 0.6 78
2019-09-19 23:00:00 23 27 Norte 37 Norte 0 1015 1.4 79
2019-09-19 22:00:00 23.1 24 Norte 32 Norte 0 1014.6 1.3 82
2019-09-19 21:00:00 23.2 22 Norte 33 Norte 0 1014.2 0.7 81
2019-09-19 20:00:00 23.3 28 Norte 37 Norte 0 1013.6 0.1 80
2019-09-19 19:00:00 23.5 29 Noroeste 35 Norte 0 1013.3 -0.4 77
2019-09-19 18:00:00 24.5 22 Norte 30 Norte 0 1013.5 -0.4 74
2019-09-19 17:00:00 24.8 21 Norte 30 Norte 0 1013.5 -0.5 72
2019-09-19 16:00:00 25.1 22 Norte 33 Norte 0 1013.7 -1 72
2019-09-19 15:00:00 24.6 26 Norte 39 Norte 0 1013.9 -1.3 73
2019-09-19 14:00:00 25.2 28 Noroeste 39 Norte 0 1014 -1 67
2019-09-19 13:00:00 24.8 26 Norte 33 Noroeste 0 1014.7 0.5 70
2019-09-19 12:00:00 25.3 19 Norte 32 Norte 0 1015.2 1.5 70
2019-09-19 11:00:00 24.2 27 Norte 35 Norte 0 1015 1.6 75
2019-09-19 10:00:00 23.4 25 Norte 33 Norte 0 1014.2 1.2 77
2019-09-19 09:00:00 22.9 21 Noroeste 35 Noroeste 0 1013.7 1.1 79
2019-09-19 08:00:00 22.5 23 Noroeste 37 Norte 0 1013.4 0.5 79
2019-09-19 07:00:00 22.7 28 Noroeste 37 Norte 0 1013 -0.4 80
2019-09-19 06:00:00 22.8 27 Norte 39 Norte 0 1012.6 -1.2 81
2019-09-19 05:00:00 22.8 24 Norte 32 Norte 0 1012.9 -1.1 80
2019-09-19 04:00:00 23.1 23 Norte 32 Noroeste 0 1013.4 -0.7 79
2019-09-19 03:00:00 22.9 27 Norte 37 Noroeste 0 1013.8 -0.7 79
2019-09-19 02:00:00 23 26 Norte 37 Norte 0 1014 -0.5 77
2019-09-19 01:00:00 22.9 30 Norte 35 Norte 0 1014.1 0.2 79
2019-09-19 00:00:00 23.1 24 Norte 33 Norte 0 1014.5 0.9 82
2019-09-18 23:00:00 23.1 22 Norte 33 Norte 0 1014.5 1.1 80
2019-09-18 22:00:00 23.3 24 Norte 32 Norte 0 1013.9 0.7 81
2019-09-18 21:00:00 23.3 23 Norte 32 Norte 0 1013.6 0.2 79
2019-09-18 20:00:00 23.4 23 Norte 32 Norte 0 1013.4 0.1 79
2019-09-18 19:00:00 23.7 22 Norte 30 Norte 0 1013.2 0 76
2019-09-18 18:00:00 24.1 24 Norte 32 Norte 0 1013.4 -0.4 73
2019-09-18 17:00:00 25.1 23 Norte 28 Norte 0 1013.3 -1 68
2019-09-18 16:00:00 25.4 17 Norte 24 Norte 0 1013.2 -1.6 66
2019-09-18 15:00:00 26.1 12 Norte 21 Norte 0 1013.8 -0.8 62
2019-09-18 14:00:00 25.2 11 Norte 22 Nordeste 0 1014.3 0 64
2019-09-18 13:00:00 24.2 14 Nordeste 21 Este 0 1014.8 1 72
2019-09-18 12:00:00 24.4 25 Norte 39 Norte 0 1014.6 1.1 72
2019-09-18 11:00:00 24.3 27 Norte 37 Norte 0 1014.3 1.2 70
2019-09-18 10:00:00 23.6 23 Norte 33 Norte 0 1013.8 1 70
2019-09-18 09:00:00 23 26 Norte 33 Norte 0 1013.5 1.3 73
2019-09-18 08:00:00 22 17 Noroeste 32 Norte 0 1013.1 1 73
2019-09-18 07:00:00 22.5 18 Norte 28 Norte 0 1012.8 0.5 74
2019-09-18 06:00:00 22.3 24 Norte 39 Norte 0 1012.2 -0.6 74
2019-09-18 05:00:00 22.5 27 Norte 39 Norte 0 1012.1 -1.2 76
2019-09-18 04:00:00 22.6 29 Norte 39 Norte 0 1012.3 -1.2 76
2019-09-18 03:00:00 22.6 23 Norte 33 Norte 0 1012.8 -1 78
2019-09-18 02:00:00 22.6 23 Norte 33 Norte 0 1013.3 -0.9 78
2019-09-18 01:00:00 22.6 22 Norte 32 Norte 0 1013.5 -0.2 81
2019-09-18 00:00:00 22.8 25 Norte 32 Norte 0 1013.8 0.6 82
2019-09-17 23:00:00 22.9 18 Norte 28 Norte 0 1014.2 1.1 83
2019-09-17 22:00:00 22.8 20 Norte 32 Norte 0 1013.7 0.6 80
2019-09-17 21:00:00 22.9 23 Norte 33 Norte 0 1013.2 0.4 79
2019-09-17 20:00:00 23 23 Norte 35 Norte 0 1013.1 0.2 78